Time;durP1;ratioP1;P1;durP2;ratioP2;P2;SDS_P1;SDS_P2;PMS_P1;PMS_P2;Temp;Humidity;BMP_temperature;BMP_pressure;BME280_temperature;BME280_humidity;BME280_pressure;Samples;Min_cycle;Max_cycle;Signal;HPM_P1;HPM_P2
2021/04/26 00:00:43;;;;;;;8.45;3.63;;;;;;;;;;5053855;28;20021;-44
2021/04/26 00:03:10;;;;;;;6.43;3.22;;;;;;;;;;5053800;28;20025;-44
2021/04/26 00:05:36;;;;;;;5.07;2.95;;;;;;;;;;5053575;28;20096;-45
2021/04/26 00:08:02;;;;;;;6.72;3.28;;;;;;;;;;5053407;28;20025;-44
2021/04/26 00:10:28;;;;;;;9.80;3.40;;;;;;;;;;5053311;28;20060;-44
2021/04/26 00:12:54;;;;;;;6.57;3.10;;;;;;;;;;5053477;28;20082;-44
2021/04/26 00:15:25;;;;;;;7.07;3.42;;;;;;;;;;5053634;28;20013;-44
2021/04/26 00:17:52;;;;;;;7.88;3.40;;;;;;;;;;5053382;28;20021;-44
2021/04/26 00:20:19;;;;;;;7.35;3.13;;;;;;;;;;5053641;28;20033;-43
2021/04/26 00:22:45;;;;;;;7.38;3.03;;;;;;;;;;5053293;28;20033;-44
2021/04/26 00:25:12;;;;;;;5.10;2.92;;;;;;;;;;5053225;28;20021;-44
2021/04/26 00:27:38;;;;;;;5.35;2.78;;;;;;;;;;5053362;28;20373;-44
2021/04/26 00:30:07;;;;;;;8.57;3.03;;;;;;;;;;5052997;28;20040;-44
2021/04/26 00:32:33;;;;;;;6.05;2.92;;;;;;;;;;5053034;28;20090;-44
2021/04/26 00:34:59;;;;;;;8.80;3.05;;;;;;;;;;5053102;28;20176;-44
2021/04/26 00:37:25;;;;;;;6.18;3.08;;;;;;;;;;5053027;28;20063;-44
2021/04/26 00:39:51;;;;;;;6.20;3.38;;;;;;;;;;5052831;28;20056;-44
2021/04/26 00:42:17;;;;;;;6.63;3.40;;;;;;;;;;5052885;28;20072;-47
2021/04/26 00:44:43;;;;;;;7.07;3.08;;;;;;;;;;5053046;28;20017;-46
2021/04/26 00:47:09;;;;;;;6.38;3.10;;;;;;;;;;5052816;28;20021;-44
2021/04/26 00:49:35;;;;;;;6.07;3.03;;;;;;;;;;5052737;28;20025;-43
2021/04/26 00:52:02;;;;;;;8.25;3.42;;;;;;;;;;5051710;28;20546;-44
2021/04/26 00:54:29;;;;;;;9.13;3.95;;;;;;;;;;5052489;28;20025;-43
2021/04/26 00:56:55;;;;;;;7.90;3.90;;;;;;;;;;5052766;28;20038;-43
2021/04/26 00:59:22;;;;;;;6.47;3.78;;;;;;;;;;5052615;28;20029;-43
2021/04/26 01:01:48;;;;;;;7.40;3.30;;;;;;;;;;5034937;28;20411;-43
2021/04/26 01:04:14;;;;;;;7.05;3.15;;;;;;;;;;5052826;28;20100;-43
2021/04/26 01:06:40;;;;;;;6.15;3.47;;;;;;;;;;5052474;28;20028;-44
2021/04/26 01:09:07;;;;;;;7.20;2.88;;;;;;;;;;5052031;28;20504;-43
2021/04/26 01:11:51;;;;;;;7.90;3.72;;;;;;;;;;5052170;28;20049;-43
2021/04/26 01:14:23;;;;;;;7.70;3.10;;;;;;;;;;5052459;28;20392;-43
2021/04/26 01:16:58;;;;;;;7.38;3.28;;;;;;;;;;5052215;28;20438;-44
2021/04/26 01:19:24;;;;;;;7.22;3.45;;;;;;;;;;5052198;28;20028;-44
2021/04/26 01:22:09;;;;;;;6.47;3.30;;;;;;;;;;5052090;28;20035;-43
2021/04/26 01:24:40;;;;;;;8.60;3.75;;;;;;;;;;5051950;28;20032;-44
2021/04/26 01:27:11;;;;;;;8.43;3.42;;;;;;;;;;5052284;28;20025;-44
2021/04/26 01:29:40;;;;;;;6.28;3.22;;;;;;;;;;5052127;28;20040;-43
2021/04/26 01:32:27;;;;;;;6.80;3.30;;;;;;;;;;5052151;28;20029;-43
2021/04/26 01:34:53;;;;;;;7.15;3.72;;;;;;;;;;5051816;28;20032;-44
2021/04/26 01:37:19;;;;;;;7.97;3.47;;;;;;;;;;5052109;28;20025;-44
2021/04/26 01:39:46;;;;;;;7.00;3.28;;;;;;;;;;5052007;28;20109;-44
2021/04/26 01:42:14;;;;;;;5.78;3.15;;;;;;;;;;5052115;28;20067;-44
2021/04/26 01:44:40;;;;;;;8.48;3.70;;;;;;;;;;5051736;28;20036;-43
2021/04/26 01:47:07;;;;;;;8.23;3.42;;;;;;;;;;5051732;28;20096;-43
2021/04/26 01:49:34;;;;;;;7.43;3.45;;;;;;;;;;5051570;28;20029;-43
2021/04/26 01:52:00;;;;;;;12.75;4.22;;;;;;;;;;5051685;28;20025;-43
2021/04/26 01:54:28;;;;;;;8.25;3.63;;;;;;;;;;5051470;28;20053;-43
2021/04/26 01:56:55;;;;;;;7.82;3.70;;;;;;;;;;5051595;28;20049;-43
2021/04/26 01:59:21;;;;;;;7.53;4.05;;;;;;;;;;5051619;28;20040;-46
2021/04/26 02:01:50;;;;;;;8.73;3.67;;;;;;;;;;5051847;28;20354;-43
2021/04/26 02:04:18;;;;;;;8.88;4.07;;;;;;;;;;5051400;28;20250;-44
2021/04/26 02:06:45;;;;;;;8.25;3.90;;;;;;;;;;5051627;28;20036;-44
2021/04/26 02:09:11;;;;;;;8.15;3.60;;;;;;;;;;5051330;28;20488;-43
2021/04/26 02:11:37;;;;;;;6.10;3.50;;;;;;;;;;5051031;28;20103;-43
2021/04/26 02:14:04;;;;;;;8.00;3.88;;;;;;;;;;5051335;28;20021;-44
2021/04/26 02:16:30;;;;;;;7.20;3.90;;;;;;;;;;5051402;28;20036;-44
2021/04/26 02:18:56;;;;;;;7.35;3.88;;;;;;;;;;5051369;28;20029;-43
2021/04/26 02:21:22;;;;;;;7.78;4.03;;;;;;;;;;5051377;28;20095;-44
2021/04/26 02:23:48;;;;;;;7.50;3.88;;;;;;;;;;5307524;22;20511;-43
2021/04/26 02:26:14;;;;;;;7.10;4.10;;;;;;;;;;5051258;28;20037;-43
2021/04/26 02:28:40;;;;;;;9.15;4.32;;;;;;;;;;5051518;28;20072;-43
2021/04/26 02:31:06;;;;;;;9.70;4.70;;;;;;;;;;5051267;28;20036;-43
2021/04/26 02:33:39;;;;;;;25.58;8.90;;;;;;;;;;5051192;28;20021;-44
2021/04/26 02:36:05;;;;;;;17.98;7.45;;;;;;;;;;5051146;28;20032;-43
2021/04/26 02:38:33;;;;;;;19.80;8.70;;;;;;;;;;5051230;28;20369;-43
2021/04/26 02:41:06;;;;;;;13.23;6.85;;;;;;;;;;5051150;28;20105;-43
2021/04/26 02:43:35;;;;;;;10.82;5.50;;;;;;;;;;5051367;28;20032;-46
2021/04/26 02:46:02;;;;;;;11.60;5.40;;;;;;;;;;5051137;28;20025;-42
2021/04/26 02:48:28;;;;;;;22.95;10.50;;;;;;;;;;5050890;28;20032;-45
2021/04/26 02:50:55;;;;;;;21.33;11.27;;;;;;;;;;5051221;28;20052;-43
2021/04/26 02:53:29;;;;;;;23.48;9.55;;;;;;;;;;5051109;28;20423;-43
2021/04/26 02:56:05;;;;;;;16.92;7.72;;;;;;;;;;5051193;28;20021;-43
2021/04/26 02:58:32;;;;;;;26.90;10.18;;;;;;;;;;5050951;28;20029;-43
2021/04/26 03:00:59;;;;;;;23.92;9.18;;;;;;;;;;5051010;28;20032;-43
2021/04/26 03:03:26;;;;;;;22.92;8.85;;;;;;;;;;5051123;28;20100;-43
2021/04/26 03:05:52;;;;;;;16.08;6.97;;;;;;;;;;5050908;28;20025;-43
2021/04/26 03:08:18;;;;;;;10.93;5.82;;;;;;;;;;5050792;28;20029;-43
2021/04/26 03:10:48;;;;;;;13.40;6.05;;;;;;;;;;5051122;28;20076;-43
2021/04/26 03:13:16;;;;;;;12.95;6.60;;;;;;;;;;5050868;28;20033;-45
2021/04/26 03:15:42;;;;;;;18.27;6.22;;;;;;;;;;5052763;28;20495;-44
2021/04/26 03:18:08;;;;;;;9.13;5.22;;;;;;;;;;5054578;28;20104;-43
2021/04/26 03:20:34;;;;;;;12.00;4.82;;;;;;;;;;5054765;28;20048;-44
2021/04/26 03:23:01;;;;;;;10.27;5.22;;;;;;;;;;5054740;28;20364;-43
2021/04/26 03:25:27;;;;;;;10.95;5.68;;;;;;;;;;5054215;28;20056;-43
2021/04/26 03:27:54;;;;;;;11.35;5.80;;;;;;;;;;5054383;28;20025;-43
2021/04/26 03:30:22;;;;;;;12.98;6.57;;;;;;;;;;5054252;28;20120;-43
2021/04/26 03:32:49;;;;;;;27.88;9.50;;;;;;;;;;5054245;28;20032;-43
2021/04/26 03:35:16;;;;;;;34.58;11.77;;;;;;;;;;5054199;28;20078;-44
2021/04/26 03:37:45;;;;;;;28.25;9.10;;;;;;;;;;5054427;28;20378;-44
2021/04/26 03:40:12;;;;;;;33.67;9.65;;;;;;;;;;5054181;28;20029;-44
2021/04/26 03:42:38;;;;;;;31.88;9.63;;;;;;;;;;5054034;28;20079;-43
2021/04/26 03:45:04;;;;;;;16.63;7.75;;;;;;;;;;5054204;28;20021;-43
2021/04/26 03:47:30;;;;;;;14.02;6.82;;;;;;;;;;5054003;28;20029;-43
2021/04/26 03:49:56;;;;;;;14.95;7.32;;;;;;;;;;5053971;28;20166;-44
2021/04/26 03:52:22;;;;;;;16.33;7.80;;;;;;;;;;5054078;28;20025;-43
2021/04/26 03:54:48;;;;;;;23.45;8.10;;;;;;;;;;5053694;28;20036;-43
2021/04/26 03:57:15;;;;;;;17.48;7.47;;;;;;;;;;5053818;28;20047;-43
2021/04/26 03:59:41;;;;;;;16.70;7.78;;;;;;;;;;5053765;28;20029;-44
2021/04/26 04:02:07;;;;;;;27.98;15.20;;;;;;;;;;5053940;28;20350;-44
2021/04/26 04:04:33;;;;;;;23.95;12.02;;;;;;;;;;5053669;28;20025;-43
2021/04/26 04:06:59;;;;;;;17.38;9.50;;;;;;;;;;5053973;28;20028;-43
2021/04/26 04:09:25;;;;;;;18.15;9.13;;;;;;;;;;5053419;28;20045;-43
2021/04/26 04:11:51;;;;;;;18.77;8.00;;;;;;;;;;5053742;28;20460;-43
2021/04/26 04:14:18;;;;;;;11.32;5.95;;;;;;;;;;5053475;28;20033;-42
2021/04/26 04:16:44;;;;;;;10.75;5.80;;;;;;;;;;5053371;28;20057;-42
2021/04/26 04:19:10;;;;;;;10.50;5.60;;;;;;;;;;5053363;28;20064;-42
2021/04/26 04:21:36;;;;;;;12.88;5.45;;;;;;;;;;5053318;28;20468;-43
2021/04/26 04:24:02;;;;;;;12.00;5.55;;;;;;;;;;5052971;28;20056;-43
2021/04/26 04:26:29;;;;;;;10.10;5.05;;;;;;;;;;5053603;28;20060;-43
2021/04/26 04:28:55;;;;;;;9.48;4.97;;;;;;;;;;5052990;28;20112;-43
2021/04/26 04:31:21;;;;;;;15.30;6.07;;;;;;;;;;5053120;28;20506;-45
2021/04/26 04:33:48;;;;;;;13.90;6.90;;;;;;;;;;5053028;28;20029;-43
2021/04/26 04:36:16;;;;;;;13.30;6.07;;;;;;;;;;5053086;28;20021;-43
2021/04/26 04:38:42;;;;;;;11.20;5.90;;;;;;;;;;5053020;28;20029;-43
2021/04/26 04:41:08;;;;;;;9.48;5.43;;;;;;;;;;5052739;28;20503;-44
2021/04/26 04:43:34;;;;;;;10.52;6.38;;;;;;;;;;5052928;28;20028;-43
2021/04/26 04:46:00;;;;;;;13.20;6.78;;;;;;;;;;5053246;28;20418;-43
2021/04/26 04:48:26;;;;;;;15.30;7.65;;;;;;;;;;5053101;28;20029;-43
2021/04/26 04:50:53;;;;;;;19.52;9.57;;;;;;;;;;5052685;28;20075;-43
2021/04/26 04:53:19;;;;;;;14.88;7.93;;;;;;;;;;5052718;28;20025;-42
2021/04/26 04:55:45;;;;;;;13.68;8.00;;;;;;;;;;5052745;28;20043;-43
2021/04/26 04:58:11;;;;;;;17.38;8.48;;;;;;;;;;5052559;28;20025;-45
2021/04/26 05:00:37;;;;;;;19.00;8.15;;;;;;;;;;5052606;28;20376;-44
2021/04/26 05:03:04;;;;;;;19.48;7.78;;;;;;;;;;5052522;28;20100;-43
2021/04/26 05:05:30;;;;;;;16.50;6.90;;;;;;;;;;5052601;28;20021;-44
2021/04/26 05:07:56;;;;;;;15.55;7.22;;;;;;;;;;5052571;28;20028;-43
2021/04/26 05:10:22;;;;;;;15.48;7.18;;;;;;;;;;5052139;28;20041;-43
2021/04/26 05:12:48;;;;;;;11.98;6.82;;;;;;;;;;5052285;28;20059;-44
2021/04/26 05:15:14;;;;;;;13.40;7.13;;;;;;;;;;5052293;28;20122;-43
2021/04/26 05:17:41;;;;;;;11.80;6.65;;;;;;;;;;5051965;28;20018;-45
2021/04/26 05:20:07;;;;;;;10.80;6.72;;;;;;;;;;5053105;28;20463;-44
2021/04/26 05:22:34;;;;;;;11.20;6.90;;;;;;;;;;5053132;28;20029;-46
2021/04/26 05:25:01;;;;;;;11.30;6.95;;;;;;;;;;5051430;28;20095;-44
2021/04/26 05:27:28;;;;;;;10.80;5.95;;;;;;;;;;5052742;28;20055;-43
2021/04/26 05:29:54;;;;;;;14.85;7.47;;;;;;;;;;5052623;28;20099;-43
2021/04/26 05:32:20;;;;;;;12.43;7.72;;;;;;;;;;5052731;28;20083;-47
2021/04/26 05:34:46;;;;;;;14.25;7.95;;;;;;;;;;5052676;28;20025;-45
2021/04/26 05:37:12;;;;;;;17.92;7.85;;;;;;;;;;5051846;28;20400;-44
2021/04/26 05:39:38;;;;;;;13.45;7.75;;;;;;;;;;5051960;28;20033;-44
2021/04/26 05:42:04;;;;;;;13.23;7.57;;;;;;;;;;5051586;28;20334;-45
2021/04/26 05:44:31;;;;;;;15.52;7.93;;;;;;;;;;5051676;28;20040;-44
2021/04/26 05:46:57;;;;;;;11.48;7.45;;;;;;;;;;5051305;28;20429;-45
2021/04/26 05:49:23;;;;;;;16.42;7.55;;;;;;;;;;5052828;28;20120;-46
2021/04/26 05:51:49;;;;;;;13.30;7.35;;;;;;;;;;5052184;28;20104;-45
2021/04/26 05:54:15;;;;;;;13.27;7.47;;;;;;;;;;5049015;28;20065;-44
2021/04/26 05:56:41;;;;;;;11.35;6.70;;;;;;;;;;5051347;28;20087;-44
2021/04/26 05:59:07;;;;;;;11.63;5.88;;;;;;;;;;5050878;28;20021;-44
2021/04/26 06:01:33;;;;;;;12.05;5.55;;;;;;;;;;5051784;28;20101;-44
2021/04/26 06:04:00;;;;;;;10.23;5.47;;;;;;;;;;5051097;28;20029;-44
2021/04/26 06:06:29;;;;;;;14.50;5.60;;;;;;;;;;5046668;28;20075;-45
2021/04/26 06:08:56;;;;;;;9.55;5.30;;;;;;;;;;5048087;28;20025;-44
2021/04/26 06:11:23;;;;;;;8.82;4.95;;;;;;;;;;5051706;28;20032;-45
2021/04/26 06:13:49;;;;;;;10.35;5.10;;;;;;;;;;5051773;28;20383;-44
2021/04/26 06:16:15;;;;;;;12.65;5.22;;;;;;;;;;5050632;28;20025;-44
2021/04/26 06:18:42;;;;;;;9.82;4.97;;;;;;;;;;5051048;28;20508;-45
2021/04/26 06:21:08;;;;;;;8.13;4.72;;;;;;;;;;5051002;28;20032;-44
2021/04/26 06:23:34;;;;;;;7.95;4.70;;;;;;;;;;5050575;28;20048;-45
2021/04/26 06:26:00;;;;;;;10.88;5.20;;;;;;;;;;5051214;28;20048;-44
2021/04/26 06:28:26;;;;;;;7.68;4.40;;;;;;;;;;5050019;28;20029;-46
2021/04/26 06:30:52;;;;;;;9.55;5.60;;;;;;;;;;5051233;28;20029;-44
2021/04/26 06:33:19;;;;;;;12.30;6.18;;;;;;;;;;5050574;28;20029;-45
2021/04/26 06:35:54;;;;;;;9.95;5.70;;;;;;;;;;5049220;28;20049;-44
2021/04/26 06:38:21;;;;;;;10.68;7.10;;;;;;;;;;5049803;28;20036;-45
2021/04/26 06:40:48;;;;;;;12.95;5.95;;;;;;;;;;5050104;28;20051;-45
2021/04/26 06:43:14;;;;;;;10.02;5.70;;;;;;;;;;5050964;28;20037;-46
2021/04/26 06:45:41;;;;;;;8.75;5.28;;;;;;;;;;5050782;28;20025;-45
2021/04/26 06:48:08;;;;;;;9.15;5.85;;;;;;;;;;5050069;28;20056;-47
2021/04/26 06:50:34;;;;;;;13.20;5.68;;;;;;;;;;5052055;28;20035;-46
2021/04/26 06:53:00;;;;;;;9.70;5.35;;;;;;;;;;5054008;28;20025;-44
2021/04/26 06:55:26;;;;;;;11.13;5.88;;;;;;;;;;5053609;28;20028;-46
2021/04/26 06:57:53;;;;;;;8.82;4.85;;;;;;;;;;5053181;28;20074;-46
2021/04/26 07:00:20;;;;;;;12.60;5.68;;;;;;;;;;5053109;28;20028;-46
2021/04/26 07:02:47;;;;;;;13.93;4.93;;;;;;;;;;5054134;28;20017;-45
2021/04/26 07:05:13;;;;;;;11.40;5.50;;;;;;;;;;5054454;28;20089;-44
2021/04/26 07:07:39;;;;;;;16.15;6.60;;;;;;;;;;5054414;28;20021;-46
2021/04/26 07:10:06;;;;;;;9.70;6.10;;;;;;;;;;5053505;28;20135;-45
2021/04/26 07:12:32;;;;;;;10.10;5.97;;;;;;;;;;5054071;28;20067;-47
2021/04/26 07:14:59;;;;;;;8.43;5.90;;;;;;;;;;5054084;28;20024;-44
2021/04/26 07:17:25;;;;;;;10.25;5.47;;;;;;;;;;5054215;28;20025;-45
2021/04/26 07:19:52;;;;;;;9.10;5.78;;;;;;;;;;5053960;28;20025;-46
2021/04/26 07:22:18;;;;;;;8.30;5.20;;;;;;;;;;5053874;28;20448;-45
2021/04/26 07:24:44;;;;;;;11.10;6.07;;;;;;;;;;5053849;28;20045;-43
2021/04/26 07:27:10;;;;;;;10.02;6.07;;;;;;;;;;5053248;28;20510;-46
2021/04/26 07:29:37;;;;;;;11.65;5.90;;;;;;;;;;5053562;28;20037;-45
2021/04/26 07:32:03;;;;;;;8.93;5.38;;;;;;;;;;5036100;28;20384;-45
2021/04/26 07:34:29;;;;;;;8.05;5.13;;;;;;;;;;5054003;28;20326;-45
2021/04/26 07:36:55;;;;;;;8.55;5.63;;;;;;;;;;5054059;28;20123;-46
2021/04/26 07:39:21;;;;;;;9.85;5.93;;;;;;;;;;5054277;28;20029;-45
2021/04/26 07:41:48;;;;;;;10.38;5.63;;;;;;;;;;5053401;28;20032;-47
2021/04/26 07:44:14;;;;;;;9.75;5.68;;;;;;;;;;5053751;28;20029;-45
2021/04/26 07:46:40;;;;;;;10.27;5.38;;;;;;;;;;5054167;28;20143;-44
2021/04/26 07:49:06;;;;;;;10.13;5.25;;;;;;;;;;5053753;28;20039;-45
2021/04/26 07:51:32;;;;;;;10.05;5.35;;;;;;;;;;5053786;28;20040;-48
2021/04/26 07:53:58;;;;;;;10.57;5.43;;;;;;;;;;5053739;28;20037;-45
2021/04/26 07:56:25;;;;;;;12.02;7.93;;;;;;;;;;5054028;28;20028;-46
2021/04/26 07:58:51;;;;;;;9.77;5.65;;;;;;;;;;5054087;28;20104;-46
2021/04/26 08:01:17;;;;;;;10.25;5.60;;;;;;;;;;5053700;28;20024;-44
2021/04/26 08:03:44;;;;;;;10.13;5.50;;;;;;;;;;5053996;28;20082;-45
2021/04/26 08:06:10;;;;;;;8.48;5.00;;;;;;;;;;5053954;28;20017;-45
2021/04/26 08:08:36;;;;;;;8.93;5.22;;;;;;;;;;5054416;28;20025;-48
2021/04/26 08:11:02;;;;;;;8.38;4.50;;;;;;;;;;5053938;28;20025;-46
2021/04/26 08:13:28;;;;;;;8.57;5.60;;;;;;;;;;5053684;28;20059;-48
2021/04/26 08:15:57;;;;;;;11.65;5.25;;;;;;;;;;5053586;28;20021;-47
2021/04/26 08:18:23;;;;;;;8.38;4.95;;;;;;;;;;5051653;28;20024;-48
2021/04/26 08:20:50;;;;;;;6.85;4.18;;;;;;;;;;5052258;28;20031;-46
2021/04/26 08:23:16;;;;;;;10.15;4.57;;;;;;;;;;5053332;28;20025;-45
2021/04/26 08:25:42;;;;;;;8.57;5.70;;;;;;;;;;5052283;28;20064;-48
2021/04/26 08:28:10;;;;;;;9.93;5.47;;;;;;;;;;5052155;28;20043;-46
2021/04/26 08:30:36;;;;;;;6.53;4.50;;;;;;;;;;5050271;28;20033;-46
2021/04/26 08:33:02;;;;;;;7.32;4.80;;;;;;;;;;5049983;28;20501;-48
2021/04/26 08:35:28;;;;;;;10.55;5.18;;;;;;;;;;5051358;28;20072;-47
2021/04/26 08:37:55;;;;;;;7.45;3.92;;;;;;;;;;5053285;28;20104;-45
2021/04/26 08:40:22;;;;;;;8.20;4.53;;;;;;;;;;5052958;28;20079;-45
2021/04/26 08:42:48;;;;;;;7.53;5.00;;;;;;;;;;5053066;28;20036;-46
2021/04/26 08:45:14;;;;;;;7.80;5.03;;;;;;;;;;5053043;28;20078;-45
2021/04/26 08:47:41;;;;;;;13.43;4.88;;;;;;;;;;5053107;28;20057;-46
2021/04/26 08:50:08;;;;;;;7.72;4.78;;;;;;;;;;5053234;28;20069;-46
2021/04/26 08:52:34;;;;;;;8.80;4.65;;;;;;;;;;5053117;28;20025;-51
2021/04/26 08:55:01;;;;;;;7.50;4.15;;;;;;;;;;5053117;28;20031;-45
2021/04/26 08:57:27;;;;;;;13.32;5.60;;;;;;;;;;5052765;28;20029;-58
2021/04/26 08:59:53;;;;;;;12.05;5.15;;;;;;;;;;5052595;28;20116;-55
2021/04/26 09:02:20;;;;;;;10.45;5.03;;;;;;;;;;5052896;28;20017;-48
2021/04/26 09:04:50;;;;;;;8.68;4.65;;;;;;;;;;5053042;28;20036;-52
2021/04/26 09:07:17;;;;;;;7.50;4.03;;;;;;;;;;5052450;28;20051;-48
2021/04/26 09:09:45;;;;;;;8.68;4.30;;;;;;;;;;5052680;28;20135;-48
2021/04/26 09:12:12;;;;;;;8.52;4.03;;;;;;;;;;5052118;28;20449;-47
2021/04/26 09:14:39;;;;;;;5.82;3.47;;;;;;;;;;5052839;28;20025;-46
2021/04/26 09:17:23;;;;;;;7.68;4.20;;;;;;;;;;5052530;28;20495;-46
2021/04/26 09:19:50;;;;;;;7.47;4.22;;;;;;;;;;5052697;28;20075;-46
2021/04/26 09:22:16;;;;;;;6.45;3.83;;;;;;;;;;5052530;28;20025;-45
2021/04/26 09:24:42;;;;;;;7.60;3.58;;;;;;;;;;5052508;28;20452;-45
2021/04/26 09:27:10;;;;;;;8.18;3.50;;;;;;;;;;5052031;28;20054;-45
2021/04/26 09:29:37;;;;;;;5.97;3.30;;;;;;;;;;5052456;28;20033;-47
2021/04/26 09:32:05;;;;;;;7.88;3.30;;;;;;;;;;5050914;28;20119;-46
2021/04/26 09:34:32;;;;;;;6.00;3.10;;;;;;;;;;5052331;28;20480;-46
2021/04/26 09:37:05;;;;;;;6.07;3.13;;;;;;;;;;5052157;28;20029;-50
2021/04/26 09:39:32;;;;;;;5.68;2.80;;;;;;;;;;5052299;28;20024;-45
2021/04/26 09:41:58;;;;;;;7.65;3.10;;;;;;;;;;5052029;28;20040;-49
2021/04/26 09:44:24;;;;;;;6.55;3.28;;;;;;;;;;5051976;28;20064;-45
2021/04/26 09:46:51;;;;;;;5.70;2.70;;;;;;;;;;5051414;28;20021;-48
2021/04/26 09:49:18;;;;;;;6.53;3.15;;;;;;;;;;5051771;28;20025;-47
2021/04/26 09:51:46;;;;;;;7.32;3.22;;;;;;;;;;5051908;28;20033;-47
2021/04/26 09:54:12;;;;;;;7.18;2.88;;;;;;;;;;5051834;28;20028;-46
2021/04/26 09:56:41;;;;;;;5.90;2.53;;;;;;;;;;5051783;28;20047;-47
2021/04/26 09:59:08;;;;;;;6.38;2.78;;;;;;;;;;5051663;28;20029;-48
2021/04/26 10:01:35;;;;;;;4.85;2.50;;;;;;;;;;5051655;28;20025;-51
2021/04/26 10:04:02;;;;;;;3.47;1.90;;;;;;;;;;5051151;28;20025;-48
2021/04/26 10:06:28;;;;;;;4.70;2.47;;;;;;;;;;5051705;28;20035;-49
2021/04/26 10:08:56;;;;;;;5.47;2.70;;;;;;;;;;5051393;28;20080;-55
2021/04/26 10:11:23;;;;;;;7.65;2.95;;;;;;;;;;5051753;28;20411;-51
2021/04/26 10:13:50;;;;;;;6.78;2.90;;;;;;;;;;5051740;28;20387;-50
2021/04/26 10:16:25;;;;;;;7.60;2.70;;;;;;;;;;5052107;28;20094;-48
2021/04/26 10:18:58;;;;;;;6.20;2.80;;;;;;;;;;5051795;28;20025;-51
2021/04/26 10:21:24;;;;;;;4.63;2.65;;;;;;;;;;5052030;28;20128;-56
2021/04/26 10:23:50;;;;;;;4.82;2.28;;;;;;;;;;5052445;28;20075;-49
2021/04/26 10:26:35;;;;;;;5.55;3.00;;;;;;;;;;5056280;28;20033;-53
2021/04/26 10:29:12;;;;;;;6.22;2.60;;;;;;;;;;5055946;28;20033;-51
2021/04/26 10:31:58;;;;;;;5.40;2.33;;;;;;;;;;5056459;28;20025;-48
2021/04/26 10:34:25;;;;;;;3.88;2.20;;;;;;;;;;5056172;28;20353;-50
2021/04/26 10:36:56;;;;;;;4.68;2.42;;;;;;;;;;5055877;28;20458;-47
2021/04/26 10:39:23;;;;;;;6.03;2.95;;;;;;;;;;5055340;28;20533;-49
2021/04/26 10:41:50;;;;;;;4.72;2.42;;;;;;;;;;5055739;28;20056;-49
2021/04/26 10:44:36;;;;;;;5.47;2.88;;;;;;;;;;5055614;28;20464;-52
2021/04/26 10:47:17;;;;;;;8.65;3.10;;;;;;;;;;5055689;28;20083;-50
2021/04/26 10:49:46;;;;;;;6.72;2.80;;;;;;;;;;5055567;28;20049;-49
2021/04/26 10:52:36;;;;;;;5.75;3.00;;;;;;;;;;5055908;28;20397;-52
2021/04/26 10:55:02;;;;;;;6.10;2.70;;;;;;;;;;5046114;28;20032;-53
2021/04/26 10:57:33;;;;;;;6.82;2.33;;;;;;;;;;5055618;28;20025;-49
2021/04/26 11:00:18;;;;;;;4.72;2.58;;;;;;;;;;5055792;28;20021;-47
2021/04/26 11:02:44;;;;;;;5.53;1.80;;;;;;;;;;5055857;28;20033;-50
2021/04/26 11:05:26;;;;;;;4.13;1.98;;;;;;;;;;5055751;28;20025;-53
2021/04/26 11:07:59;;;;;;;3.72;1.83;;;;;;;;;;5055713;28;20044;-51
2021/04/26 11:10:35;;;;;;;5.88;2.20;;;;;;;;;;5055345;28;20040;-51
2021/04/26 11:13:19;;;;;;;3.88;1.90;;;;;;;;;;5055295;28;20033;-56
2021/04/26 11:16:03;;;;;;;4.85;2.47;;;;;;;;;;5055362;28;20466;-52
2021/04/26 11:18:29;;;;;;;4.95;2.33;;;;;;;;;;5055322;28;20023;-49
2021/04/26 11:20:55;;;;;;;7.95;2.55;;;;;;;;;;5055341;28;20033;-54
2021/04/26 11:23:48;;;;;;;8.43;2.90;;;;;;;;;;5055251;28;20094;-55
2021/04/26 11:26:15;;;;;;;6.07;2.20;;;;;;;;;;5051758;28;20373;-49
2021/04/26 11:29:00;;;;;;;6.88;2.05;;;;;;;;;;5055053;28;20036;-53
2021/04/26 11:31:44;;;;;;;5.47;2.25;;;;;;;;;;5054931;28;20033;-55
2021/04/26 11:34:12;;;;;;;5.70;2.53;;;;;;;;;;5055483;28;20032;-48
2021/04/26 11:36:58;;;;;;;3.92;2.00;;;;;;;;;;5054170;28;20025;-48
2021/04/26 11:39:27;;;;;;;5.55;2.80;;;;;;;;;;5054398;28;20036;-48
2021/04/26 11:41:53;;;;;;;4.13;2.22;;;;;;;;;;5054756;28;20025;-50
2021/04/26 11:44:25;;;;;;;3.30;1.70;;;;;;;;;;5054507;28;20025;-40
2021/04/26 11:46:51;;;;;;;4.90;2.15;;;;;;;;;;5054611;28;20053;-56
2021/04/26 11:49:22;;;;;;;5.53;2.08;;;;;;;;;;5054552;28;20049;-55
2021/04/26 11:51:50;;;;;;;4.25;1.77;;;;;;;;;;5054927;28;20029;-53
2021/04/26 11:54:19;;;;;;;4.35;1.55;;;;;;;;;;5054923;28;20021;-50
2021/04/26 11:57:03;;;;;;;4.75;1.80;;;;;;;;;;5055045;28;20025;-58
2021/04/26 11:59:30;;;;;;;3.90;1.58;;;;;;;;;;5054742;28;20376;-53
2021/04/26 12:01:56;;;;;;;5.32;2.08;;;;;;;;;;5054649;28;20017;-57
2021/04/26 12:04:32;;;;;;;3.55;1.60;;;;;;;;;;5054007;28;20108;-51
2021/04/26 12:06:59;;;;;;;3.30;1.50;;;;;;;;;;5054447;28;20025;-57
2021/04/26 12:09:25;;;;;;;6.28;1.90;;;;;;;;;;5054341;28;20060;-56
2021/04/26 12:11:58;;;;;;;3.25;1.73;;;;;;;;;;5054565;28;20013;-53
2021/04/26 12:14:25;;;;;;;3.55;1.48;;;;;;;;;;5054484;28;20110;-53
2021/04/26 12:16:51;;;;;;;3.33;1.40;;;;;;;;;;5054220;28;20040;-57
2021/04/26 12:19:30;;;;;;;5.47;1.77;;;;;;;;;;5054273;28;20044;-54
2021/04/26 12:21:57;;;;;;;4.25;1.80;;;;;;;;;;5054164;28;20040;-57
2021/04/26 12:24:23;;;;;;;5.55;2.10;;;;;;;;;;5054066;28;20126;-59
2021/04/26 12:26:49;;;;;;;5.50;1.73;;;;;;;;;;5054009;28;20100;-58
2021/04/26 12:29:29;;;;;;;3.28;1.60;;;;;;;;;;5054018;28;20147;-55
2021/04/26 12:32:14;;;;;;;3.20;1.35;;;;;;;;;;5053990;28;20116;-56
2021/04/26 12:34:50;;;;;;;5.60;1.73;;;;;;;;;;5054320;28;20478;-57
2021/04/26 12:37:17;;;;;;;4.97;1.60;;;;;;;;;;5053808;28;20057;-57
2021/04/26 12:39:43;;;;;;;4.30;1.50;;;;;;;;;;5053842;28;20036;-54
2021/04/26 12:42:13;;;;;;;3.15;1.50;;;;;;;;;;5054013;28;20098;-55
2021/04/26 12:44:39;;;;;;;4.22;1.50;;;;;;;;;;5053475;28;20546;-58
2021/04/26 12:47:34;;;;;;;3.85;1.67;;;;;;;;;;5053883;28;20017;-54
2021/04/26 12:50:16;;;;;;;2.33;1.42;;;;;;;;;;5040583;28;20045;-61
2021/04/26 12:52:43;;;;;;;4.03;1.60;;;;;;;;;;5053871;28;20028;-59
2021/04/26 12:55:12;;;;;;;4.57;1.80;;;;;;;;;;5053761;28;20406;-54
2021/04/26 12:57:39;;;;;;;5.30;1.48;;;;;;;;;;5053541;28;20107;-58
2021/04/26 13:00:09;;;;;;;4.20;1.50;;;;;;;;;;5053567;28;20028;-52
2021/04/26 13:02:35;;;;;;;5.00;1.60;;;;;;;;;;5053683;28;20052;-56
2021/04/26 13:05:01;;;;;;;5.75;2.72;;;;;;;;;;5053242;28;20108;-57
2021/04/26 13:07:28;;;;;;;4.50;1.90;;;;;;;;;;5053172;28;20032;-54
2021/04/26 13:10:23;;;;;;;3.97;1.73;;;;;;;;;;5053374;28;20068;-56
2021/04/26 13:13:02;;;;;;;3.72;1.65;;;;;;;;;;5040351;28;20049;-59
2021/04/26 13:15:28;;;;;;;3.60;1.45;;;;;;;;;;5053333;28;20037;-60
2021/04/26 13:18:10;;;;;;;3.83;1.50;;;;;;;;;;5053079;28;20090;-57
2021/04/26 13:20:36;;;;;;;4.82;1.90;;;;;;;;;;5053049;28;20473;-59
2021/04/26 13:23:15;;;;;;;2.88;1.60;;;;;;;;;;5052924;28;20051;-59
2021/04/26 13:25:41;;;;;;;4.05;1.77;;;;;;;;;;5052649;28;20048;-60
2021/04/26 13:28:07;;;;;;;3.40;1.50;;;;;;;;;;5052735;28;20021;-61
2021/04/26 13:30:33;;;;;;;3.47;1.80;;;;;;;;;;5053016;28;20365;-52
2021/04/26 13:33:00;;;;;;;5.55;1.77;;;;;;;;;;5052758;28;20115;-53
2021/04/26 13:35:26;;;;;;;4.28;1.45;;;;;;;;;;5052660;28;20098;-55
2021/04/26 13:37:52;;;;;;;3.15;1.70;;;;;;;;;;5052693;28;20453;-60
2021/04/26 13:40:18;;;;;;;2.85;1.60;;;;;;;;;;5053018;28;20405;-59
2021/04/26 13:42:45;;;;;;;4.05;1.70;;;;;;;;;;5052866;28;20068;-60
2021/04/26 13:45:11;;;;;;;3.47;1.75;;;;;;;;;;5052822;28;20033;-59
2021/04/26 13:47:37;;;;;;;4.32;1.50;;;;;;;;;;5052631;28;20408;-58
2021/04/26 13:50:03;;;;;;;3.63;1.90;;;;;;;;;;5052469;28;20083;-53
2021/04/26 13:52:29;;;;;;;3.40;1.80;;;;;;;;;;5052700;28;20063;-56
2021/04/26 13:54:56;;;;;;;3.85;1.90;;;;;;;;;;5052306;28;20330;-61
2021/04/26 13:57:22;;;;;;;4.10;1.95;;;;;;;;;;5052656;28;20358;-61
2021/04/26 13:59:48;;;;;;;4.10;1.80;;;;;;;;;;5051851;28;20028;-58
2021/04/26 14:02:14;;;;;;;4.40;1.92;;;;;;;;;;5052463;28;20032;-61
2021/04/26 14:04:41;;;;;;;3.55;1.52;;;;;;;;;;5052261;28;20025;-63
2021/04/26 14:07:07;;;;;;;4.47;1.60;;;;;;;;;;5052232;28;20033;-51
2021/04/26 14:09:34;;;;;;;4.50;1.90;;;;;;;;;;5052159;28;20097;-62
2021/04/26 14:12:01;;;;;;;4.32;1.60;;;;;;;;;;5052282;28;20086;-62
2021/04/26 14:14:27;;;;;;;5.45;2.30;;;;;;;;;;5052428;28;20435;-56
2021/04/26 14:16:53;;;;;;;3.90;1.80;;;;;;;;;;5051945;28;20118;-59
2021/04/26 14:19:19;;;;;;;4.97;1.58;;;;;;;;;;5052250;28;20028;-60
2021/04/26 14:21:46;;;;;;;3.50;1.58;;;;;;;;;;5052328;28;20021;-56
2021/04/26 14:24:12;;;;;;;3.00;1.65;;;;;;;;;;5051860;28;20057;-60
2021/04/26 14:26:38;;;;;;;10.27;2.38;;;;;;;;;;5052066;28;20029;-59
2021/04/26 14:29:04;;;;;;;5.78;1.90;;;;;;;;;;5052002;28;20032;-50
2021/04/26 14:31:30;;;;;;;4.13;1.80;;;;;;;;;;5051881;28;20074;-60
2021/04/26 14:33:57;;;;;;;4.93;1.60;;;;;;;;;;5052097;28;20083;-49
2021/04/26 14:36:23;;;;;;;3.90;1.80;;;;;;;;;;5052302;28;20082;-58
2021/04/26 14:38:49;;;;;;;4.35;2.00;;;;;;;;;;5052084;28;20542;-54
2021/04/26 14:41:15;;;;;;;3.55;1.75;;;;;;;;;;5052071;28;20055;-62
2021/04/26 14:43:41;;;;;;;5.53;1.73;;;;;;;;;;5052234;28;20384;-56